Latest Weather Observations for Swan Hill

IDN60801

Issued at 10:12 am EST Monday 16 September 2019 (issued every 10 minutes, with the page automatically refreshed every 10 minutes)

About weather observations | Map of weather stations | Latest weather observations for NSW | Other Formats
Station Details ID: 077094 Name: SWAN HILL AERODROME Lat: -35.38 Lon: 143.54 Height: 71.0 m
Data from the previous 72 hours. | See also: Recent months at Swan Hill
Date/Time
EST
Temp
°C
App
Temp
°C
Dew
Point
°C
Rel
Hum
%
Delta-T
°C
Wind Press
QNH
hPa
Press
MSL
hPa
Rain since
9am
mm
Dir  Spd
km/h
Gust
km/h
Spd
kts
Gust
kts
16/10:00am 12.2 7.4 5.4 63 3.2 S 20 32 11 17 1020.4 1020.4 0.0
16/09:30am 11.2 5.5 5.1 66 2.8 SE 24 39 13 21 1019.5 1019.5 0.0
16/09:00am 11.2 6.5 5.1 66 2.8 SSE 19 28 10 15 1019.7 1019.7 0.0
16/08:30am 11.6 6.5 4.3 61 3.3 SSE 20 32 11 17 1019.1 1019.1 0.0
16/08:00am 10.9 6.3 5.4 69 2.5 SSE 19 28 10 15 1018.9 1018.9 0.0
16/07:30am 10.9 7.2 6.1 72 2.2 S 15 24 8 13 1019.2 1019.2 0.0
16/07:00am 10.9 7.1 5.9 71 2.3 S 15 24 8 13 1018.5 1018.5 0.0
16/06:30am 10.6 6.3 6.9 78 1.8 SSW 19 28 10 15 1017.6 1017.7 0.0
16/06:00am 11.3 7.7 8.2 81 1.5 SSW 17 28 9 15 1017.3 1017.4 0.0
16/05:30am 12.3 8.8 8.8 79 1.8 SSW 17 28 9 15 1016.4 1016.4 0.0
16/05:24am 12.8 9.5 9.6 81 1.6 SSW 17 35 9 19 1016.0 1016.0 0.0
16/05:00am 13.5 9.9 10.7 83 1.5 SSW 20 35 11 19 1016.2 1016.2 0.0
16/04:58am 13.6 10.3 10.8 83 1.5 SSW 19 30 10 16 1016.1 1016.1 0.0
16/04:30am 13.8 12.3 10.4 80 1.8 SSW 9 15 5 8 1015.5 1015.5 0.0
16/04:00am 14.5 12.4 9.9 74 2.4 SSW 11 17 6 9 1015.3 1015.3 0.0
16/03:30am 14.8 13.1 9.8 72 2.6 S 9 13 5 7 1014.9 1014.9 0.0
16/03:00am 15.2 12.7 9.8 70 2.8 S 13 17 7 9 1014.5 1014.5 0.0
16/02:30am 15.4 12.5 9.7 69 3.0 S 15 26 8 14 1014.6 1014.6 0.0
16/02:00am 15.9 12.1 9.8 67 3.2 SSW 20 39 11 21 1015.4 1015.4 0.0
16/01:30am 17.0 12.0 9.4 61 4.0 SSW 26 37 14 20 1015.7 1015.7 0.0
16/01:00am 17.8 13.0 7.5 51 5.2 SW 22 33 12 18 1015.3 1015.3 0.0
16/12:30am 17.7 14.2 5.6 45 5.9 SW 13 17 7 9 1014.5 1014.5 0.0
16/12:00am 17.8 15.2 6.0 46 5.8 N 9 9 5 5 1014.6 1014.6 0.0
 
Date/Time
EST
Temp
°C
App
Temp
°C
Dew
Point
°C
Rel
Hum
%
Delta-T
°C
Wind Press
QNH
hPa
Press
MSL
hPa
Rain since
9am
mm
Dir  Spd
km/h
Gust
km/h
Spd
kts
Gust
kts
15/11:30pm 17.4 15.6 7.2 51 5.1 N 6 7 3 4 1014.9 1014.9 0.0
15/11:00pm 18.3 15.9 6.8 47 5.8 N 9 11 5 6 1014.8 1014.8 0.0
15/10:30pm 17.8 15.4 7.0 49 5.4 N 9 9 5 5 1015.3 1015.3 0.0
15/10:00pm 17.4 15.5 7.5 52 5.0 N 7 13 4 7 1015.9 1015.9 0.0
15/09:30pm 18.0 16.0 7.1 49 5.5 N 7 9 4 5 1016.2 1016.2 0.0
15/09:00pm 18.4 15.9 6.6 46 5.9 N 9 13 5 7 1016.1 1016.1 0.0
15/08:30pm 19.3 18.6 6.8 44 6.3 CALM 0 0 0 0 1016.1 1016.1 0.0
15/08:00pm 22.0 18.9 5.4 34 8.3 WSW 11 15 6 8 1016.4 1016.4 0.0
15/07:30pm 23.9 19.8 4.3 28 9.7 SW 15 20 8 11 1016.5 1016.5 0.0
15/07:00pm 25.0 19.3 3.0 24 10.7 WSW 22 37 12 20 1016.1 1016.1 0.0
15/06:30pm 24.7 20.4 3.4 25 10.4 W 15 22 8 12 1016.0 1016.0 0.0
15/06:00pm 26.4 20.3 3.0 22 11.5 SW 24 44 13 24 1015.6 1015.6 0.0
15/05:36pm 26.7 19.8 2.6 21 11.8 WSW 28 46 15 25 1015.6 1015.6 0.0
15/05:30pm 26.9 21.7 3.4 22 11.7 WSW 20 46 11 25 1015.6 1015.6 0.0
15/05:00pm 27.0 22.0 3.5 22 11.7 WSW 19 24 10 13 1015.3 1015.3 0.0
15/04:30pm 27.9 21.9 3.6 21 12.2 WSW 24 35 13 19 1015.1 1015.1 0.0
15/04:00pm 28.9 22.1 3.0 19 13.0 NW 28 41 15 22 1014.9 1014.9 0.0
15/03:30pm 27.6 20.5 3.3 21 12.1 NW 30 43 16 23 1015.1 1015.1 0.0
15/03:00pm 27.8 20.6 2.8 20 12.4 NW 30 41 16 22 1015.5 1015.5 0.0
15/02:30pm 28.2 20.8 3.8 21 12.3 NW 32 46 17 25 1015.9 1015.9 0.0
15/02:00pm 28.4 20.5 4.6 22 12.2 NW 35 46 19 25 1016.1 1016.1 0.0
15/01:30pm 28.5 20.6 4.1 21 12.4 NW 35 46 19 25 1016.7 1016.7 0.0
15/01:04pm 27.8 20.7 5.4 24 11.6 NW 32 50 17 27 1017.0 1017.1 0.0
15/01:00pm 27.8 20.0 4.8 23 11.8 NW 35 50 19 27 1017.1 1017.2 0.0
15/12:30pm 27.1 19.3 4.8 24 11.4 NW 35 43 19 23 1018.0 1018.1 0.0
15/12:00pm 25.9 19.4 4.9 26 10.6 NNW 28 35 15 19 1018.4 1018.4 0.0
15/11:30am 24.6 18.5 4.9 28 9.9 NNW 26 33 14 18 1019.0 1019.0 0.0
15/11:00am 22.1 15.7 5.1 33 8.4 NNW 28 35 15 19 1018.9 1018.9 0.0
15/10:44am 22.0 15.4 7.8 40 7.4 N 32 39 17 21 1019.0 1019.0 0.0
15/10:30am 17.0 10.8 7.9 55 4.6 NNW 30 39 16 21 1019.0 1019.0 0.0
15/10:14am 16.2 8.5 7.2 55 4.5 N 37 52 20 28 1017.7 1017.8 0.0
15/10:00am 18.1 11.8 5.7 44 6.1 NNW 28 43 15 23 1019.8 1019.8 0.0
15/09:30am 19.7 14.0 2.6 32 8.0 NNW 22 30 12 16 1021.1 1021.1 0.0
15/09:00am 17.5 12.7 2.7 37 6.8 NNW 17 24 9 13 1020.9 1020.9 0.0
15/08:30am 16.4 11.1 2.1 38 6.4 N 19 24 10 13 1020.8 1020.8 0.0
15/08:00am 14.8 10.5 1.0 39 5.9 N 13 17 7 9 1020.9 1020.9 0.0
15/07:30am 12.1 8.8 2.6 52 4.1 SW 9 13 5 7 1020.8 1020.8 0.0
15/07:00am 10.5 6.7 1.6 54 3.7 SW 11 13 6 7 1020.5 1020.5 0.0
15/06:30am 8.4 6.1 2.6 67 2.4 SW 4 7 2 4 1020.7 1020.7 0.0
15/06:00am 8.2 6.1 3.7 73 1.9 SW 4 11 2 6 1020.5 1020.5 0.0
15/05:30am 9.5 7.6 2.6 62 2.9 SW 2 7 1 4 1020.6 1020.6 0.0
15/05:00am 8.9 6.0 4.7 75 1.9 SW 9 11 5 6 1020.1 1020.1 0.0
15/04:30am 8.9 6.9 2.3 63 2.8 SW 2 7 1 4 1020.6 1020.6 0.0
15/04:00am 8.7 6.7 2.3 64 2.7 SW 2 6 1 3 1020.3 1020.3 0.0
15/03:30am 7.5 5.7 0.9 63 2.6 CALM 0 2 0 1 1019.9 1019.9 0.0
15/03:00am 8.6 5.7 1.3 60 3.0 SW 6 9 3 5 1020.4 1020.4 0.0
15/02:30am 10.1 6.3 1.7 56 3.5 SW 11 11 6 6 1020.7 1020.7 0.0
15/02:00am 8.6 5.2 2.0 63 2.7 SW 9 9 5 5 1021.3 1021.3 0.0
15/01:30am 7.9 4.5 2.0 66 2.4 SW 9 11 5 6 1021.9 1021.9 0.0
15/01:00am 8.0 5.1 1.6 64 2.6 SW 6 7 3 4 1022.2 1022.2 0.0
15/12:30am 7.4 4.4 2.3 70 2.1 SW 7 9 4 5 1022.3 1022.3 0.0
15/12:00am 7.4 4.0 2.1 69 2.2 SW 9 11 5 6 1022.2 1022.2 0.0
 
Date/Time
EST
Temp
°C
App
Temp
°C
Dew
Point
°C
Rel
Hum
%
Delta-T
°C
Wind Press
QNH
hPa
Press
MSL
hPa
Rain since
9am
mm
Dir  Spd
km/h
Gust
km/h
Spd
kts
Gust
kts
14/11:30pm 6.8 4.0 1.9 71 2.0 SW 6 6 3 3 1022.7 1022.7 0.0
14/11:00pm 7.0 4.1 1.3 67 2.3 SW 6 7 3 4 1022.8 1022.8 0.0
14/10:30pm 7.4 4.6 2.3 70 2.1 SW 6 9 3 5 1023.3 1023.3 0.0
14/10:00pm 7.8 6.0 1.0 62 2.7 CALM 0 0 0 0 1023.8 1023.8 0.0
14/09:30pm 8.4 6.7 1.8 63 2.7 CALM 0 0 0 0 1023.9 1023.9 0.0
14/09:00pm 9.9 6.6 2.7 61 3.1 SW 9 9 5 5 1024.0 1024.0 0.0
14/08:30pm 9.9 7.9 2.5 60 3.2 SW 2 7 1 4 1024.3 1024.3 0.0
14/08:00pm 11.6 9.2 2.1 52 4.1 SW 4 7 2 4 1024.3 1024.3 0.0
14/07:30pm 13.0 11.2 1.0 44 5.1 CALM 0 0 0 0 1024.3 1024.3 0.0
14/07:00pm 15.7 12.4 -0.9 32 6.9 SW 6 9 3 5 1024.0 1024.0 0.0
14/06:30pm 17.0 13.0 0.2 32 7.3 WNW 11 15 6 8 1024.0 1024.0 0.0
14/06:00pm 19.3 16.3 2.2 32 7.8 WNW 7 9 4 5 1023.9 1023.9 0.0
14/05:30pm 21.3 17.9 1.6 27 9.1 WNW 9 11 5 6 1023.9 1023.9 0.0
14/05:00pm 22.6 18.4 -0.8 21 10.4 WNW 11 13 6 7 1023.4 1023.4 0.0
14/04:30pm 23.1 18.5 -1.1 20 10.8 W 13 20 7 11 1023.6 1023.6 0.0
14/04:00pm 23.1 18.3 -2.5 18 11.0 WNW 13 20 7 11 1023.6 1023.6 0.0
14/03:30pm 23.0 18.9 -0.5 21 10.6 NW 11 19 6 10 1023.6 1023.6 0.0
14/03:00pm 22.1 17.9 -0.6 22 10.1 NNW 11 19 6 10 1023.8 1023.8 0.0
14/02:30pm 21.9 17.6 1.0 25 9.6 NW 13 20 7 11 1024.1 1024.1 0.0
14/02:00pm 21.2 16.9 1.0 26 9.2 WNW 13 19 7 10 1024.6 1024.6 0.0
14/01:30pm 20.3 16.6 2.2 30 8.4 W 11 20 6 11 1025.0 1025.0 0.0
14/01:00pm 19.5 16.0 3.6 35 7.5 W 11 17 6 9 1025.7 1025.7 0.0
14/12:30pm 18.0 15.4 3.1 37 6.9 WSW 6 9 3 5 1026.2 1026.2 0.0
14/12:00pm 17.7 15.3 4.3 41 6.3 SE 6 9 3 5 1026.8 1026.8 0.0
14/11:30am 16.8 14.1 5.7 48 5.4 ESE 9 13 5 7 1027.2 1027.2 0.0
14/11:00am 15.7 13.4 5.0 49 5.0 SW 6 13 3 7 1027.6 1027.6 0.0
14/10:30am 14.9 13.3 6.2 56 4.2 ESE 4 13 2 7 1027.8 1027.8 0.0
14/10:00am 13.6 11.0 6.0 60 3.6 ESE 9 17 5 9 1028.0 1028.0 0.0
14/09:30am 12.8 10.4 7.0 68 2.8 SE 9 17 5 9 1028.2 1028.2 0.0
14/09:00am 10.2 8.9 9.3 94 0.4 SW 6 9 3 5 1028.4 1028.4 0.0
14/08:30am 7.7 5.8 7.4 98 0.1 SW 7 9 4 5 1028.1 1028.1 0.0
14/08:00am 6.2 3.9 5.9 98 0.1 SW 7 11 4 6 1027.9 1027.9 0.0
14/07:44am 5.3 2.5 5.0 98 0.1 WSW 9 13 5 7 1027.7 1027.7 0.0
14/07:39am 4.9 2.4 4.6 98 0.1 WSW 7 11 4 6 1027.8 1027.8 0.0
14/07:30am 3.9 1.4 3.6 98 0.1 WSW 6 7 3 4 1027.6 1027.6 0.0
14/07:00am 2.0 -0.9 1.4 96 0.2 SSW 6 7 3 4 1027.3 1027.3 0.0
14/06:32am 2.3 -0.6 1.6 95 0.3 SSW 6 9 3 5 1026.9 1026.9 0.0
14/06:30am 2.3 -0.8 1.6 95 0.3 SSW 7 9 4 5 1026.9 1026.9 0.0
14/06:19am 2.6 -0.2 1.9 95 0.3 SSW 6 9 3 5 1026.8 1026.8 0.0
14/06:00am 3.6 1.7 2.9 95 0.3 SSW 2 7 1 4 1026.5 1026.5 0.0
14/05:30am 4.4 1.7 3.8 96 0.3 SSW 7 9 4 5 1026.4 1026.4 0.0
14/05:00am 4.9 1.9 4.2 95 0.3 SW 9 11 5 6 1026.3 1026.3 0.0
14/04:30am 5.6 2.7 4.9 95 0.3 SSW 9 17 5 9 1026.1 1026.1 0.0
14/04:00am 6.0 2.5 5.3 95 0.3 SW 13 17 7 9 1025.9 1025.9 0.0
14/03:30am 6.5 3.1 5.8 95 0.3 SW 13 17 7 9 1025.9 1025.9 0.0
14/03:00am 6.4 2.9 5.5 94 0.4 SW 13 15 7 8 1026.1 1026.1 0.0
14/02:30am 7.2 3.8 6.1 93 0.5 SW 13 17 7 9 1026.0 1026.0 0.0
14/02:00am 8.0 4.0 6.8 92 0.6 SW 17 20 9 11 1026.4 1026.4 0.0
14/01:30am 8.7 5.2 7.2 90 0.7 SW 15 20 8 11 1026.5 1026.5 0.0
14/01:00am 9.2 5.4 7.5 89 0.8 SSW 17 24 9 13 1026.4 1026.4 0.0
14/12:30am 8.9 6.1 7.0 88 0.9 SSW 11 17 6 9 1026.4 1026.4 0.0
14/12:00am 9.5 6.0 7.4 87 1.0 SSW 15 20 8 11 1026.4 1026.4 0.0
 
Date/Time
EST
Temp
°C
App
Temp
°C
Dew
Point
°C
Rel
Hum
%
Delta-T
°C
Wind Press
QNH
hPa
Press
MSL
hPa
Rain since
9am
mm
Dir  Spd
km/h
Gust
km/h
Spd
kts
Gust
kts
13/11:30pm 9.3 5.7 6.6 83 1.3 SW 15 19 8 10 1026.3 1026.3 0.0
13/11:00pm 9.6 6.3 6.3 80 1.5 SW 13 15 7 8 1026.1 1026.1 0.0
13/10:30pm 9.3 6.8 4.9 74 2.0 SW 7 9 4 5 1026.0 1026.0 0.0
13/10:00pm 10.5 7.8 5.7 72 2.2 SW 9 13 5 7 1026.0 1026.0 0.0
13/09:30pm 11.6 8.2 5.7 67 2.7 SW 13 17 7 9 1025.8 1025.8 0.0
13/09:00pm 10.5 7.5 4.0 64 2.9 SW 9 9 5 5 1025.4 1025.4 0.0
13/08:30pm 10.1 7.9 3.6 64 2.9 SW 4 9 2 5 1025.3 1025.3 0.0
13/08:00pm 13.1 10.1 4.0 54 4.1 SW 9 11 5 6 1025.2 1025.2 0.0
13/07:30pm 13.9 10.4 3.4 49 4.7 SW 11 13 6 7 1024.9 1024.9 0.0
13/07:00pm 13.8 10.2 3.0 48 4.8 SW 11 13 6 7 1024.6 1024.6 0.0
13/06:30pm 15.6 12.0 3.1 43 5.7 SSW 11 15 6 8 1024.6 1024.6 0.0
13/06:00pm 17.5 13.5 2.7 37 6.8 SW 13 17 7 9 1024.3 1024.3 0.0
13/05:30pm 19.3 14.4 1.8 31 8.0 SW 17 26 9 14 1024.2 1024.2 0.0
13/05:00pm 20.3 14.4 1.7 29 8.5 SW 22 32 12 17 1024.2 1024.2 0.0
13/04:30pm 20.8 14.8 1.1 27 9.0 SW 22 32 12 17 1023.7 1023.7 0.0
13/04:00pm 21.2 15.7 0.4 25 9.4 SW 19 24 10 13 1023.5 1023.5 0.0
13/03:30pm 21.7 16.7 1.4 26 9.4 W 17 22 9 12 1023.1 1023.1 0.0
13/03:00pm 21.5 16.8 1.2 26 9.3 WSW 15 30 8 16 1023.2 1023.2 0.0
13/02:30pm 21.1 15.9 2.4 29 8.8 WSW 19 32 10 17 1023.8 1023.8 0.0
13/02:00pm 21.0 15.6 2.3 29 8.7 W 20 32 11 17 1024.0 1024.0 0.0
13/01:30pm 20.1 15.0 3.3 33 8.0 W 19 30 10 16 1024.1 1024.1 0.0
13/01:00pm 19.8 14.7 3.9 35 7.6 W 20 32 11 17 1024.6 1024.6 0.0
13/12:30pm 19.1 14.3 4.5 38 7.0 WSW 19 30 10 16 1024.9 1024.9 0.0
13/12:00pm 18.0 14.0 6.5 47 5.7 W 17 24 9 13 1025.2 1025.2 0.0
13/11:30am 17.6 13.4 5.9 46 5.7 WNW 17 26 9 14 1025.9 1025.9 0.0
13/11:00am 17.0 13.5 7.1 52 4.9 NW 15 20 8 11 1025.4 1025.4 0.0
13/10:30am 15.7 13.0 7.2 57 4.2 WNW 11 19 6 10 1025.7 1025.7 0.0

Other formats

Comma delimited format used in spreadsheet applications
http://www.bom.gov.au/fwo/IDN60801/IDN60801.94843.axf

JavaScript Object Notation format (JSON) in row-major order
http://www.bom.gov.au/fwo/IDN60801/IDN60801.94843.json

Data quality

Most of these data are generated automatically and are frequently updated. Quality checks on data are not normally performed. It is possible for incorrect values to appear. Refer to information at About Latest Weather Observations and please check the disclaimer before using these data.